sensor_id;sensor_type;location;lat;lon;timestamp;P1;durP1;ratioP1;P2;durP2;ratioP2
83682;SDS011;73663;51.298;5.802;2023-12-20T00:04:25;9.48;;;4.85;;
83682;SDS011;73663;51.298;5.802;2023-12-20T00:09:25;9.82;;;4.20;;
83682;SDS011;73663;51.298;5.802;2023-12-20T00:14:32;11.45;;;4.43;;
83682;SDS011;73663;51.298;5.802;2023-12-20T00:19:33;13.68;;;4.25;;
83682;SDS011;73663;51.298;5.802;2023-12-20T00:24:33;7.95;;;3.10;;
83682;SDS011;73663;51.298;5.802;2023-12-20T00:29:34;9.57;;;2.17;;
83682;SDS011;73663;51.298;5.802;2023-12-20T00:34:34;6.68;;;2.08;;
83682;SDS011;73663;51.298;5.802;2023-12-20T00:39:35;8.77;;;1.95;;
83682;SDS011;73663;51.298;5.802;2023-12-20T00:44:35;12.15;;;2.22;;
83682;SDS011;73663;51.298;5.802;2023-12-20T00:49:36;12.05;;;2.38;;
83682;SDS011;73663;51.298;5.802;2023-12-20T00:54:36;10.07;;;2.40;;
83682;SDS011;73663;51.298;5.802;2023-12-20T00:59:37;4.63;;;2.03;;
83682;SDS011;73663;51.298;5.802;2023-12-20T01:04:37;9.05;;;1.73;;
83682;SDS011;73663;51.298;5.802;2023-12-20T01:09:38;10.82;;;1.67;;
83682;SDS011;73663;51.298;5.802;2023-12-20T01:14:46;7.10;;;1.42;;
83682;SDS011;73663;51.298;5.802;2023-12-20T01:19:47;8.23;;;1.55;;
83682;SDS011;73663;51.298;5.802;2023-12-20T01:24:47;5.32;;;1.30;;
83682;SDS011;73663;51.298;5.802;2023-12-20T01:29:48;5.45;;;1.45;;
83682;SDS011;73663;51.298;5.802;2023-12-20T01:34:48;5.80;;;1.38;;
83682;SDS011;73663;51.298;5.802;2023-12-20T01:39:49;6.53;;;1.52;;
83682;SDS011;73663;51.298;5.802;2023-12-20T01:44:50;8.48;;;1.50;;
83682;SDS011;73663;51.298;5.802;2023-12-20T01:49:50;5.68;;;1.38;;
83682;SDS011;73663;51.298;5.802;2023-12-20T01:54:51;5.45;;;1.38;;
83682;SDS011;73663;51.298;5.802;2023-12-20T01:59:51;10.98;;;1.48;;
83682;SDS011;73663;51.298;5.802;2023-12-20T02:04:59;11.60;;;1.60;;
83682;SDS011;73663;51.298;5.802;2023-12-20T02:10:00;6.82;;;1.80;;
83682;SDS011;73663;51.298;5.802;2023-12-20T02:15:01;4.55;;;1.27;;
83682;SDS011;73663;51.298;5.802;2023-12-20T02:20:02;10.88;;;1.70;;
83682;SDS011;73663;51.298;5.802;2023-12-20T02:25:02;6.38;;;1.52;;
83682;SDS011;73663;51.298;5.802;2023-12-20T02:30:03;9.50;;;2.50;;
83682;SDS011;73663;51.298;5.802;2023-12-20T02:35:05;9.80;;;2.22;;
83682;SDS011;73663;51.298;5.802;2023-12-20T02:40:06;10.75;;;2.17;;
83682;SDS011;73663;51.298;5.802;2023-12-20T02:45:13;9.63;;;1.85;;
83682;SDS011;73663;51.298;5.802;2023-12-20T02:50:14;11.25;;;1.85;;
83682;SDS011;73663;51.298;5.802;2023-12-20T02:55:14;11.88;;;2.25;;
83682;SDS011;73663;51.298;5.802;2023-12-20T03:00:15;11.60;;;2.05;;
83682;SDS011;73663;51.298;5.802;2023-12-20T03:05:15;13.77;;;2.72;;
83682;SDS011;73663;51.298;5.802;2023-12-20T03:10:16;4.75;;;1.52;;
83682;SDS011;73663;51.298;5.802;2023-12-20T03:15:16;10.02;;;2.80;;
83682;SDS011;73663;51.298;5.802;2023-12-20T03:20:17;8.55;;;2.78;;
83682;SDS011;73663;51.298;5.802;2023-12-20T03:25:17;8.98;;;2.90;;
83682;SDS011;73663;51.298;5.802;2023-12-20T03:30:18;9.60;;;2.58;;
83682;SDS011;73663;51.298;5.802;2023-12-20T03:35:19;7.55;;;2.35;;
83682;SDS011;73663;51.298;5.802;2023-12-20T03:40:20;12.07;;;3.28;;
83682;SDS011;73663;51.298;5.802;2023-12-20T03:45:20;13.40;;;2.67;;
83682;SDS011;73663;51.298;5.802;2023-12-20T03:50:24;14.05;;;3.97;;
83682;SDS011;73663;51.298;5.802;2023-12-20T03:55:25;10.93;;;2.58;;
83682;SDS011;73663;51.298;5.802;2023-12-20T04:00:26;13.75;;;3.15;;
83682;SDS011;73663;51.298;5.802;2023-12-20T04:05:26;10.90;;;2.90;;
83682;SDS011;73663;51.298;5.802;2023-12-20T04:10:27;13.50;;;3.53;;
83682;SDS011;73663;51.298;5.802;2023-12-20T04:15:27;12.10;;;3.35;;
83682;SDS011;73663;51.298;5.802;2023-12-20T04:20:28;14.43;;;3.55;;
83682;SDS011;73663;51.298;5.802;2023-12-20T04:25:28;10.35;;;3.13;;
83682;SDS011;73663;51.298;5.802;2023-12-20T04:30:29;10.80;;;2.90;;
83682;SDS011;73663;51.298;5.802;2023-12-20T04:35:29;11.55;;;3.63;;
83682;SDS011;73663;51.298;5.802;2023-12-20T04:40:30;13.00;;;3.60;;
83682;SDS011;73663;51.298;5.802;2023-12-20T04:45:30;9.77;;;4.18;;
83682;SDS011;73663;51.298;5.802;2023-12-20T04:50:31;9.23;;;3.03;;
83682;SDS011;73663;51.298;5.802;2023-12-20T04:55:32;11.55;;;3.67;;
83682;SDS011;73663;51.298;5.802;2023-12-20T05:00:32;8.68;;;2.90;;
83682;SDS011;73663;51.298;5.802;2023-12-20T05:05:33;8.20;;;2.60;;
83682;SDS011;73663;51.298;5.802;2023-12-20T05:10:33;11.25;;;2.63;;
83682;SDS011;73663;51.298;5.802;2023-12-20T05:15:35;15.07;;;2.50;;
83682;SDS011;73663;51.298;5.802;2023-12-20T05:20:35;13.98;;;3.08;;
83682;SDS011;73663;51.298;5.802;2023-12-20T05:25:36;8.38;;;2.80;;
83682;SDS011;73663;51.298;5.802;2023-12-20T05:30:36;8.98;;;2.72;;
83682;SDS011;73663;51.298;5.802;2023-12-20T05:35:37;11.07;;;2.65;;
83682;SDS011;73663;51.298;5.802;2023-12-20T05:40:38;15.50;;;2.70;;
83682;SDS011;73663;51.298;5.802;2023-12-20T05:45:38;13.35;;;2.80;;
83682;SDS011;73663;51.298;5.802;2023-12-20T05:50:45;10.43;;;2.95;;
83682;SDS011;73663;51.298;5.802;2023-12-20T05:55:46;13.20;;;2.83;;
83682;SDS011;73663;51.298;5.802;2023-12-20T06:00:46;7.20;;;2.10;;
83682;SDS011;73663;51.298;5.802;2023-12-20T06:05:48;9.02;;;2.45;;
83682;SDS011;73663;51.298;5.802;2023-12-20T06:10:49;8.40;;;2.33;;
83682;SDS011;73663;51.298;5.802;2023-12-20T06:15:49;9.02;;;2.13;;
83682;SDS011;73663;51.298;5.802;2023-12-20T06:20:50;8.30;;;2.25;;
83682;SDS011;73663;51.298;5.802;2023-12-20T06:25:51;11.02;;;2.30;;
83682;SDS011;73663;51.298;5.802;2023-12-20T06:30:52;7.60;;;2.35;;
83682;SDS011;73663;51.298;5.802;2023-12-20T06:35:54;9.10;;;3.00;;
83682;SDS011;73663;51.298;5.802;2023-12-20T06:40:54;12.55;;;2.22;;
83682;SDS011;73663;51.298;5.802;2023-12-20T06:45:57;14.13;;;2.78;;
83682;SDS011;73663;51.298;5.802;2023-12-20T06:51:05;7.63;;;2.47;;
83682;SDS011;73663;51.298;5.802;2023-12-20T06:56:06;12.05;;;2.58;;
83682;SDS011;73663;51.298;5.802;2023-12-20T07:01:10;10.27;;;2.15;;
83682;SDS011;73663;51.298;5.802;2023-12-20T07:06:12;10.70;;;2.58;;
83682;SDS011;73663;51.298;5.802;2023-12-20T07:11:13;14.43;;;2.88;;
83682;SDS011;73663;51.298;5.802;2023-12-20T07:16:14;8.73;;;2.40;;
83682;SDS011;73663;51.298;5.802;2023-12-20T07:21:14;9.10;;;2.92;;
83682;SDS011;73663;51.298;5.802;2023-12-20T07:26:16;9.13;;;2.25;;
83682;SDS011;73663;51.298;5.802;2023-12-20T07:31:17;10.05;;;2.53;;
83682;SDS011;73663;51.298;5.802;2023-12-20T07:36:19;15.80;;;2.88;;
83682;SDS011;73663;51.298;5.802;2023-12-20T07:41:19;7.50;;;1.48;;
83682;SDS011;73663;51.298;5.802;2023-12-20T07:46:27;14.98;;;3.10;;
83682;SDS011;73663;51.298;5.802;2023-12-20T07:51:27;9.38;;;2.20;;
83682;SDS011;73663;51.298;5.802;2023-12-20T07:56:28;6.93;;;1.35;;
83682;SDS011;73663;51.298;5.802;2023-12-20T08:01:29;12.60;;;2.65;;
83682;SDS011;73663;51.298;5.802;2023-12-20T08:06:30;10.77;;;2.58;;
83682;SDS011;73663;51.298;5.802;2023-12-20T08:11:30;14.35;;;2.78;;
83682;SDS011;73663;51.298;5.802;2023-12-20T08:16:31;13.02;;;2.65;;
83682;SDS011;73663;51.298;5.802;2023-12-20T08:21:31;9.73;;;2.13;;
83682;SDS011;73663;51.298;5.802;2023-12-20T08:26:32;11.52;;;2.72;;
83682;SDS011;73663;51.298;5.802;2023-12-20T08:31:33;9.95;;;1.92;;
83682;SDS011;73663;51.298;5.802;2023-12-20T08:36:34;17.02;;;3.10;;
83682;SDS011;73663;51.298;5.802;2023-12-20T08:41:35;7.65;;;1.98;;
83682;SDS011;73663;51.298;5.802;2023-12-20T08:46:36;9.98;;;1.95;;
83682;SDS011;73663;51.298;5.802;2023-12-20T08:51:36;9.07;;;2.28;;
83682;SDS011;73663;51.298;5.802;2023-12-20T08:56:40;12.13;;;3.17;;
83682;SDS011;73663;51.298;5.802;2023-12-20T09:01:41;6.57;;;1.95;;
83682;SDS011;73663;51.298;5.802;2023-12-20T09:06:42;8.40;;;2.25;;
83682;SDS011;73663;51.298;5.802;2023-12-20T09:11:42;10.07;;;2.30;;
83682;SDS011;73663;51.298;5.802;2023-12-20T09:16:46;9.48;;;2.17;;
83682;SDS011;73663;51.298;5.802;2023-12-20T09:21:46;20.23;;;3.45;;
83682;SDS011;73663;51.298;5.802;2023-12-20T09:26:47;15.65;;;2.70;;
83682;SDS011;73663;51.298;5.802;2023-12-20T09:31:47;7.68;;;2.92;;
83682;SDS011;73663;51.298;5.802;2023-12-20T09:36:48;12.75;;;2.63;;
83682;SDS011;73663;51.298;5.802;2023-12-20T09:41:51;11.75;;;2.95;;
83682;SDS011;73663;51.298;5.802;2023-12-20T09:46:57;6.20;;;1.98;;
83682;SDS011;73663;51.298;5.802;2023-12-20T09:52:00;6.82;;;1.73;;
83682;SDS011;73663;51.298;5.802;2023-12-20T09:57:02;7.43;;;1.95;;
83682;SDS011;73663;51.298;5.802;2023-12-20T10:02:02;8.25;;;1.88;;
83682;SDS011;73663;51.298;5.802;2023-12-20T10:07:07;9.15;;;1.77;;
83682;SDS011;73663;51.298;5.802;2023-12-20T10:12:08;13.88;;;2.75;;
83682;SDS011;73663;51.298;5.802;2023-12-20T10:17:08;6.25;;;2.00;;
83682;SDS011;73663;51.298;5.802;2023-12-20T10:22:10;5.10;;;2.38;;
83682;SDS011;73663;51.298;5.802;2023-12-20T10:27:10;10.02;;;2.53;;
83682;SDS011;73663;51.298;5.802;2023-12-20T10:32:21;8.52;;;2.85;;
83682;SDS011;73663;51.298;5.802;2023-12-20T10:37:24;7.53;;;1.92;;
83682;SDS011;73663;51.298;5.802;2023-12-20T10:42:25;11.70;;;2.47;;
83682;SDS011;73663;51.298;5.802;2023-12-20T10:47:26;7.93;;;2.78;;
83682;SDS011;73663;51.298;5.802;2023-12-20T10:52:30;4.65;;;2.05;;
83682;SDS011;73663;51.298;5.802;2023-12-20T10:57:32;5.78;;;2.38;;
83682;SDS011;73663;51.298;5.802;2023-12-20T11:02:36;9.13;;;1.95;;
83682;SDS011;73663;51.298;5.802;2023-12-20T11:07:46;5.07;;;1.95;;
83682;SDS011;73663;51.298;5.802;2023-12-20T11:18:03;11.80;;;1.92;;
83682;SDS011;73663;51.298;5.802;2023-12-20T11:23:06;8.90;;;2.15;;
83682;SDS011;73663;51.298;5.802;2023-12-20T11:28:09;10.18;;;2.50;;
83682;SDS011;73663;51.298;5.802;2023-12-20T11:33:10;9.98;;;2.72;;
83682;SDS011;73663;51.298;5.802;2023-12-20T11:38:11;12.57;;;2.65;;
83682;SDS011;73663;51.298;5.802;2023-12-20T11:43:13;6.03;;;2.13;;
83682;SDS011;73663;51.298;5.802;2023-12-20T11:48:35;12.68;;;2.75;;
83682;SDS011;73663;51.298;5.802;2023-12-20T11:58:39;10.55;;;3.00;;
83682;SDS011;73663;51.298;5.802;2023-12-20T12:03:41;15.63;;;3.22;;
83682;SDS011;73663;51.298;5.802;2023-12-20T12:08:42;8.95;;;2.70;;
83682;SDS011;73663;51.298;5.802;2023-12-20T12:13:43;9.70;;;2.55;;
83682;SDS011;73663;51.298;5.802;2023-12-20T12:18:44;6.93;;;2.83;;
83682;SDS011;73663;51.298;5.802;2023-12-20T12:23:44;8.55;;;2.42;;
83682;SDS011;73663;51.298;5.802;2023-12-20T12:28:53;8.50;;;2.58;;
83682;SDS011;73663;51.298;5.802;2023-12-20T12:33:54;13.65;;;3.50;;
83682;SDS011;73663;51.298;5.802;2023-12-20T12:38:56;11.40;;;3.40;;
83682;SDS011;73663;51.298;5.802;2023-12-20T12:43:58;6.53;;;3.58;;
83682;SDS011;73663;51.298;5.802;2023-12-20T12:48:58;9.55;;;2.97;;
83682;SDS011;73663;51.298;5.802;2023-12-20T12:53:59;9.63;;;2.70;;
83682;SDS011;73663;51.298;5.802;2023-12-20T12:59:00;7.43;;;2.92;;
83682;SDS011;73663;51.298;5.802;2023-12-20T13:04:01;8.18;;;2.92;;
83682;SDS011;73663;51.298;5.802;2023-12-20T13:09:03;11.93;;;2.70;;
83682;SDS011;73663;51.298;5.802;2023-12-20T13:14:04;4.07;;;2.60;;
83682;SDS011;73663;51.298;5.802;2023-12-20T13:19:05;13.00;;;3.30;;
83682;SDS011;73663;51.298;5.802;2023-12-20T13:24:06;8.55;;;2.83;;
83682;SDS011;73663;51.298;5.802;2023-12-20T13:29:07;5.55;;;2.55;;
83682;SDS011;73663;51.298;5.802;2023-12-20T13:34:07;10.18;;;3.78;;
83682;SDS011;73663;51.298;5.802;2023-12-20T13:39:08;6.28;;;2.25;;
83682;SDS011;73663;51.298;5.802;2023-12-20T13:44:09;7.07;;;3.05;;
83682;SDS011;73663;51.298;5.802;2023-12-20T13:49:09;8.70;;;3.15;;
83682;SDS011;73663;51.298;5.802;2023-12-20T13:54:10;10.65;;;3.50;;
83682;SDS011;73663;51.298;5.802;2023-12-20T13:59:11;4.97;;;3.40;;
83682;SDS011;73663;51.298;5.802;2023-12-20T14:04:12;10.77;;;3.53;;
83682;SDS011;73663;51.298;5.802;2023-12-20T14:09:13;15.15;;;4.65;;
83682;SDS011;73663;51.298;5.802;2023-12-20T14:14:14;7.28;;;2.60;;
83682;SDS011;73663;51.298;5.802;2023-12-20T14:19:15;11.05;;;3.65;;
83682;SDS011;73663;51.298;5.802;2023-12-20T14:24:15;8.40;;;3.58;;
83682;SDS011;73663;51.298;5.802;2023-12-20T14:29:16;8.50;;;3.45;;
83682;SDS011;73663;51.298;5.802;2023-12-20T14:34:17;9.70;;;3.40;;
83682;SDS011;73663;51.298;5.802;2023-12-20T14:39:17;5.63;;;2.65;;
83682;SDS011;73663;51.298;5.802;2023-12-20T14:44:18;9.48;;;2.80;;
83682;SDS011;73663;51.298;5.802;2023-12-20T14:49:19;12.68;;;3.15;;
83682;SDS011;73663;51.298;5.802;2023-12-20T14:54:19;6.00;;;2.72;;
83682;SDS011;73663;51.298;5.802;2023-12-20T14:59:20;10.68;;;3.00;;
83682;SDS011;73663;51.298;5.802;2023-12-20T15:04:22;15.48;;;3.15;;
83682;SDS011;73663;51.298;5.802;2023-12-20T15:09:28;7.30;;;2.60;;
83682;SDS011;73663;51.298;5.802;2023-12-20T15:14:29;12.30;;;3.08;;
83682;SDS011;73663;51.298;5.802;2023-12-20T15:19:30;11.55;;;3.30;;
83682;SDS011;73663;51.298;5.802;2023-12-20T15:24:31;12.10;;;3.38;;
83682;SDS011;73663;51.298;5.802;2023-12-20T15:29:38;10.70;;;2.50;;
83682;SDS011;73663;51.298;5.802;2023-12-20T15:34:39;8.90;;;3.13;;
83682;SDS011;73663;51.298;5.802;2023-12-20T15:39:40;7.28;;;2.63;;
83682;SDS011;73663;51.298;5.802;2023-12-20T15:44:42;13.02;;;2.85;;
83682;SDS011;73663;51.298;5.802;2023-12-20T15:49:42;7.65;;;2.65;;
83682;SDS011;73663;51.298;5.802;2023-12-20T15:54:43;9.05;;;3.42;;
83682;SDS011;73663;51.298;5.802;2023-12-20T15:59:44;11.23;;;2.75;;
83682;SDS011;73663;51.298;5.802;2023-12-20T16:04:44;13.80;;;2.60;;
83682;SDS011;73663;51.298;5.802;2023-12-20T16:09:45;10.30;;;3.28;;
83682;SDS011;73663;51.298;5.802;2023-12-20T16:14:46;8.98;;;2.30;;
83682;SDS011;73663;51.298;5.802;2023-12-20T16:19:46;12.32;;;2.50;;
83682;SDS011;73663;51.298;5.802;2023-12-20T16:24:47;8.90;;;2.15;;
83682;SDS011;73663;51.298;5.802;2023-12-20T16:29:47;7.85;;;2.47;;
83682;SDS011;73663;51.298;5.802;2023-12-20T16:34:48;8.45;;;3.10;;
83682;SDS011;73663;51.298;5.802;2023-12-20T16:39:49;6.13;;;2.08;;
83682;SDS011;73663;51.298;5.802;2023-12-20T16:44:49;10.98;;;3.05;;
83682;SDS011;73663;51.298;5.802;2023-12-20T16:49:50;12.52;;;2.70;;
83682;SDS011;73663;51.298;5.802;2023-12-20T16:54:50;8.70;;;2.60;;
83682;SDS011;73663;51.298;5.802;2023-12-20T16:59:51;9.15;;;3.20;;
83682;SDS011;73663;51.298;5.802;2023-12-20T17:04:52;7.72;;;2.80;;
83682;SDS011;73663;51.298;5.802;2023-12-20T17:09:52;10.60;;;3.17;;
83682;SDS011;73663;51.298;5.802;2023-12-20T17:14:53;9.27;;;2.83;;
83682;SDS011;73663;51.298;5.802;2023-12-20T17:19:53;10.00;;;3.25;;
83682;SDS011;73663;51.298;5.802;2023-12-20T17:24:54;10.90;;;3.60;;
83682;SDS011;73663;51.298;5.802;2023-12-20T17:29:54;9.45;;;3.08;;
83682;SDS011;73663;51.298;5.802;2023-12-20T17:34:55;10.85;;;3.40;;
83682;SDS011;73663;51.298;5.802;2023-12-20T17:39:56;7.13;;;3.95;;
83682;SDS011;73663;51.298;5.802;2023-12-20T17:44:56;10.65;;;3.10;;
83682;SDS011;73663;51.298;5.802;2023-12-20T17:49:57;10.73;;;3.10;;
83682;SDS011;73663;51.298;5.802;2023-12-20T17:54:57;7.80;;;3.03;;
83682;SDS011;73663;51.298;5.802;2023-12-20T18:00:10;15.85;;;3.70;;
83682;SDS011;73663;51.298;5.802;2023-12-20T18:05:22;8.77;;;3.00;;
83682;SDS011;73663;51.298;5.802;2023-12-20T18:10:22;12.35;;;4.03;;
83682;SDS011;73663;51.298;5.802;2023-12-20T18:15:23;10.40;;;3.55;;
83682;SDS011;73663;51.298;5.802;2023-12-20T18:20:23;10.25;;;3.38;;
83682;SDS011;73663;51.298;5.802;2023-12-20T18:25:24;5.28;;;2.55;;
83682;SDS011;73663;51.298;5.802;2023-12-20T18:30:31;12.18;;;3.70;;
83682;SDS011;73663;51.298;5.802;2023-12-20T18:35:31;8.55;;;2.78;;
83682;SDS011;73663;51.298;5.802;2023-12-20T18:40:34;13.30;;;3.65;;
83682;SDS011;73663;51.298;5.802;2023-12-20T18:45:35;9.63;;;3.15;;
83682;SDS011;73663;51.298;5.802;2023-12-20T18:50:42;6.50;;;3.30;;
83682;SDS011;73663;51.298;5.802;2023-12-20T18:55:42;9.93;;;3.50;;
83682;SDS011;73663;51.298;5.802;2023-12-20T19:00:43;7.80;;;2.97;;
83682;SDS011;73663;51.298;5.802;2023-12-20T19:05:43;8.82;;;2.95;;
83682;SDS011;73663;51.298;5.802;2023-12-20T19:10:44;10.88;;;3.65;;
83682;SDS011;73663;51.298;5.802;2023-12-20T19:15:44;7.47;;;3.85;;
83682;SDS011;73663;51.298;5.802;2023-12-20T19:20:45;8.80;;;3.22;;
83682;SDS011;73663;51.298;5.802;2023-12-20T19:25:46;5.93;;;2.88;;
83682;SDS011;73663;51.298;5.802;2023-12-20T19:30:46;7.75;;;3.28;;
83682;SDS011;73663;51.298;5.802;2023-12-20T19:35:47;13.52;;;3.85;;
83682;SDS011;73663;51.298;5.802;2023-12-20T19:40:47;6.68;;;3.00;;
83682;SDS011;73663;51.298;5.802;2023-12-20T19:45:49;11.43;;;3.60;;
83682;SDS011;73663;51.298;5.802;2023-12-20T19:50:50;8.52;;;3.60;;
83682;SDS011;73663;51.298;5.802;2023-12-20T19:55:51;5.15;;;2.63;;
83682;SDS011;73663;51.298;5.802;2023-12-20T20:00:51;7.78;;;4.10;;
83682;SDS011;73663;51.298;5.802;2023-12-20T20:05:52;6.72;;;2.97;;
83682;SDS011;73663;51.298;5.802;2023-12-20T20:10:52;10.35;;;3.70;;
83682;SDS011;73663;51.298;5.802;2023-12-20T20:15:53;11.40;;;3.38;;
83682;SDS011;73663;51.298;5.802;2023-12-20T20:20:55;8.90;;;2.63;;
83682;SDS011;73663;51.298;5.802;2023-12-20T20:25:55;8.57;;;3.30;;
83682;SDS011;73663;51.298;5.802;2023-12-20T20:30:56;7.15;;;3.25;;
83682;SDS011;73663;51.298;5.802;2023-12-20T20:35:57;7.80;;;2.83;;
83682;SDS011;73663;51.298;5.802;2023-12-20T20:40:57;6.35;;;3.38;;
83682;SDS011;73663;51.298;5.802;2023-12-20T20:45:58;5.45;;;2.60;;
83682;SDS011;73663;51.298;5.802;2023-12-20T20:50:59;7.20;;;3.00;;
83682;SDS011;73663;51.298;5.802;2023-12-20T20:56:01;4.03;;;2.33;;
83682;SDS011;73663;51.298;5.802;2023-12-20T21:01:01;4.30;;;2.20;;
83682;SDS011;73663;51.298;5.802;2023-12-20T21:06:02;7.63;;;1.90;;
83682;SDS011;73663;51.298;5.802;2023-12-20T21:11:03;10.35;;;3.00;;
83682;SDS011;73663;51.298;5.802;2023-12-20T21:16:04;7.47;;;2.67;;
83682;SDS011;73663;51.298;5.802;2023-12-20T21:21:11;5.07;;;2.63;;
83682;SDS011;73663;51.298;5.802;2023-12-20T21:26:12;11.13;;;3.38;;
83682;SDS011;73663;51.298;5.802;2023-12-20T21:31:13;11.98;;;2.53;;
83682;SDS011;73663;51.298;5.802;2023-12-20T21:36:13;8.10;;;3.05;;
83682;SDS011;73663;51.298;5.802;2023-12-20T21:41:17;8.73;;;3.28;;
83682;SDS011;73663;51.298;5.802;2023-12-20T21:46:18;15.95;;;3.42;;
83682;SDS011;73663;51.298;5.802;2023-12-20T21:51:19;5.90;;;2.80;;
83682;SDS011;73663;51.298;5.802;2023-12-20T21:56:20;7.18;;;2.78;;
83682;SDS011;73663;51.298;5.802;2023-12-20T22:01:21;8.32;;;3.42;;
83682;SDS011;73663;51.298;5.802;2023-12-20T22:06:21;9.82;;;3.70;;
83682;SDS011;73663;51.298;5.802;2023-12-20T22:11:22;7.45;;;4.40;;
83682;SDS011;73663;51.298;5.802;2023-12-20T22:16:22;11.68;;;4.53;;
83682;SDS011;73663;51.298;5.802;2023-12-20T22:21:23;8.60;;;4.20;;
83682;SDS011;73663;51.298;5.802;2023-12-20T22:26:25;6.43;;;3.13;;
83682;SDS011;73663;51.298;5.802;2023-12-20T22:31:25;6.75;;;3.17;;
83682;SDS011;73663;51.298;5.802;2023-12-20T22:36:26;8.80;;;4.25;;
83682;SDS011;73663;51.298;5.802;2023-12-20T22:41:28;11.02;;;4.28;;
83682;SDS011;73663;51.298;5.802;2023-12-20T22:46:28;10.45;;;4.20;;
83682;SDS011;73663;51.298;5.802;2023-12-20T22:51:30;9.20;;;5.20;;
83682;SDS011;73663;51.298;5.802;2023-12-20T23:01:34;8.38;;;3.85;;
83682;SDS011;73663;51.298;5.802;2023-12-20T23:06:34;9.55;;;4.30;;
83682;SDS011;73663;51.298;5.802;2023-12-20T23:11:35;12.35;;;5.20;;
83682;SDS011;73663;51.298;5.802;2023-12-20T23:16:36;10.10;;;4.68;;
83682;SDS011;73663;51.298;5.802;2023-12-20T23:21:37;8.68;;;4.53;;
83682;SDS011;73663;51.298;5.802;2023-12-20T23:26:38;8.73;;;5.25;;
83682;SDS011;73663;51.298;5.802;2023-12-20T23:31:38;10.30;;;4.40;;
83682;SDS011;73663;51.298;5.802;2023-12-20T23:36:46;10.85;;;5.20;;
83682;SDS011;73663;51.298;5.802;2023-12-20T23:41:46;11.95;;;5.60;;
83682;SDS011;73663;51.298;5.802;2023-12-20T23:46:47;11.43;;;4.55;;
83682;SDS011;73663;51.298;5.802;2023-12-20T23:51:47;6.93;;;3.78;;
83682;SDS011;73663;51.298;5.802;2023-12-20T23:56:48;11.30;;;5.03;;
